sensor_id;sensor_type;location;lat;lon;timestamp;P1;durP1;ratioP1;P2;durP2;ratioP2
8199;SDS011;4141;47.880;12.340;2022-10-16T00:00:58;9.40;;;2.83;;
8199;SDS011;4141;47.880;12.340;2022-10-16T00:03:33;4.70;;;2.50;;
8199;SDS011;4141;47.880;12.340;2022-10-16T00:06:02;2.40;;;2.20;;
8199;SDS011;4141;47.880;12.340;2022-10-16T00:08:31;9.10;;;5.17;;
8199;SDS011;4141;47.880;12.340;2022-10-16T00:11:00;5.53;;;3.50;;
8199;SDS011;4141;47.880;12.340;2022-10-16T00:13:31;4.30;;;2.70;;
8199;SDS011;4141;47.880;12.340;2022-10-16T00:16:01;6.10;;;3.50;;
8199;SDS011;4141;47.880;12.340;2022-10-16T00:18:29;3.93;;;2.73;;
8199;SDS011;4141;47.880;12.340;2022-10-16T00:21:01;4.03;;;2.17;;
8199;SDS011;4141;47.880;12.340;2022-10-16T00:23:49;4.60;;;2.23;;
8199;SDS011;4141;47.880;12.340;2022-10-16T00:26:18;5.13;;;2.20;;
8199;SDS011;4141;47.880;12.340;2022-10-16T00:28:49;8.70;;;2.23;;
8199;SDS011;4141;47.880;12.340;2022-10-16T00:31:18;5.90;;;2.10;;
8199;SDS011;4141;47.880;12.340;2022-10-16T00:33:48;2.10;;;1.67;;
8199;SDS011;4141;47.880;12.340;2022-10-16T00:36:19;3.83;;;2.13;;
8199;SDS011;4141;47.880;12.340;2022-10-16T00:38:49;10.60;;;2.03;;
8199;SDS011;4141;47.880;12.340;2022-10-16T00:41:22;2.60;;;2.07;;
8199;SDS011;4141;47.880;12.340;2022-10-16T00:43:54;3.00;;;2.20;;
8199;SDS011;4141;47.880;12.340;2022-10-16T00:46:23;2.40;;;1.50;;
8199;SDS011;4141;47.880;12.340;2022-10-16T00:48:54;5.20;;;1.80;;
8199;SDS011;4141;47.880;12.340;2022-10-16T00:51:25;4.37;;;2.70;;
8199;SDS011;4141;47.880;12.340;2022-10-16T00:53:56;7.93;;;2.60;;
8199;SDS011;4141;47.880;12.340;2022-10-16T00:56:26;3.23;;;2.20;;
8199;SDS011;4141;47.880;12.340;2022-10-16T00:58:55;11.53;;;2.23;;
8199;SDS011;4141;47.880;12.340;2022-10-16T01:01:24;3.83;;;2.20;;
8199;SDS011;4141;47.880;12.340;2022-10-16T01:03:52;4.87;;;2.07;;
8199;SDS011;4141;47.880;12.340;2022-10-16T01:06:24;5.30;;;2.30;;
8199;SDS011;4141;47.880;12.340;2022-10-16T01:08:57;5.80;;;1.53;;
8199;SDS011;4141;47.880;12.340;2022-10-16T01:11:31;3.47;;;2.10;;
8199;SDS011;4141;47.880;12.340;2022-10-16T01:14:05;10.63;;;2.90;;
8199;SDS011;4141;47.880;12.340;2022-10-16T01:16:34;2.40;;;1.90;;
8199;SDS011;4141;47.880;12.340;2022-10-16T01:19:08;3.73;;;2.00;;
8199;SDS011;4141;47.880;12.340;2022-10-16T01:21:40;2.97;;;2.17;;
8199;SDS011;4141;47.880;12.340;2022-10-16T01:24:12;8.57;;;2.47;;
8199;SDS011;4141;47.880;12.340;2022-10-16T01:29:38;8.27;;;3.00;;
8199;SDS011;4141;47.880;12.340;2022-10-16T01:32:10;5.20;;;3.37;;
8199;SDS011;4141;47.880;12.340;2022-10-16T01:34:44;4.80;;;2.93;;
8199;SDS011;4141;47.880;12.340;2022-10-16T01:37:22;4.87;;;3.10;;
8199;SDS011;4141;47.880;12.340;2022-10-16T01:39:58;7.43;;;2.90;;
8199;SDS011;4141;47.880;12.340;2022-10-16T01:42:30;3.33;;;2.60;;
8199;SDS011;4141;47.880;12.340;2022-10-16T01:45:02;6.83;;;3.00;;
8199;SDS011;4141;47.880;12.340;2022-10-16T01:47:34;5.00;;;3.53;;
8199;SDS011;4141;47.880;12.340;2022-10-16T01:50:03;11.00;;;4.47;;
8199;SDS011;4141;47.880;12.340;2022-10-16T01:52:33;13.83;;;4.73;;
8199;SDS011;4141;47.880;12.340;2022-10-16T01:55:03;6.37;;;3.63;;
8199;SDS011;4141;47.880;12.340;2022-10-16T01:57:36;3.70;;;3.20;;
8199;SDS011;4141;47.880;12.340;2022-10-16T02:00:07;7.97;;;3.00;;
8199;SDS011;4141;47.880;12.340;2022-10-16T02:02:38;2.70;;;2.33;;
8199;SDS011;4141;47.880;12.340;2022-10-16T02:05:09;6.27;;;2.70;;
8199;SDS011;4141;47.880;12.340;2022-10-16T02:07:40;4.07;;;2.47;;
8199;SDS011;4141;47.880;12.340;2022-10-16T02:10:09;3.70;;;3.10;;
8199;SDS011;4141;47.880;12.340;2022-10-16T02:12:39;2.83;;;2.50;;
8199;SDS011;4141;47.880;12.340;2022-10-16T02:15:09;6.73;;;2.73;;
8199;SDS011;4141;47.880;12.340;2022-10-16T02:17:37;5.33;;;2.60;;
8199;SDS011;4141;47.880;12.340;2022-10-16T02:20:05;4.80;;;2.90;;
8199;SDS011;4141;47.880;12.340;2022-10-16T02:22:35;3.53;;;2.57;;
8199;SDS011;4141;47.880;12.340;2022-10-16T02:25:05;5.50;;;2.93;;
8199;SDS011;4141;47.880;12.340;2022-10-16T02:27:35;6.07;;;2.70;;
8199;SDS011;4141;47.880;12.340;2022-10-16T02:30:09;3.20;;;2.30;;
8199;SDS011;4141;47.880;12.340;2022-10-16T02:32:41;4.10;;;2.70;;
8199;SDS011;4141;47.880;12.340;2022-10-16T02:35:10;4.50;;;2.60;;
8199;SDS011;4141;47.880;12.340;2022-10-16T02:37:39;3.97;;;2.77;;
8199;SDS011;4141;47.880;12.340;2022-10-16T02:40:08;4.60;;;2.20;;
8199;SDS011;4141;47.880;12.340;2022-10-16T02:42:39;3.90;;;2.53;;
8199;SDS011;4141;47.880;12.340;2022-10-16T02:45:10;5.77;;;2.93;;
8199;SDS011;4141;47.880;12.340;2022-10-16T02:47:42;3.40;;;2.80;;
8199;SDS011;4141;47.880;12.340;2022-10-16T02:50:10;7.50;;;2.77;;
8199;SDS011;4141;47.880;12.340;2022-10-16T02:52:38;5.73;;;3.40;;
8199;SDS011;4141;47.880;12.340;2022-10-16T02:55:07;7.10;;;3.33;;
8199;SDS011;4141;47.880;12.340;2022-10-16T02:57:35;3.50;;;2.80;;
8199;SDS011;4141;47.880;12.340;2022-10-16T03:00:05;5.40;;;3.03;;
8199;SDS011;4141;47.880;12.340;2022-10-16T03:02:36;5.20;;;2.87;;
8199;SDS011;4141;47.880;12.340;2022-10-16T03:05:04;5.10;;;2.20;;
8199;SDS011;4141;47.880;12.340;2022-10-16T03:07:33;4.00;;;2.53;;
8199;SDS011;4141;47.880;12.340;2022-10-16T03:10:01;3.97;;;2.80;;
8199;SDS011;4141;47.880;12.340;2022-10-16T03:12:29;4.53;;;2.30;;
8199;SDS011;4141;47.880;12.340;2022-10-16T03:14:58;6.60;;;3.10;;
8199;SDS011;4141;47.880;12.340;2022-10-16T03:17:26;4.83;;;3.00;;
8199;SDS011;4141;47.880;12.340;2022-10-16T03:19:56;9.67;;;4.43;;
8199;SDS011;4141;47.880;12.340;2022-10-16T03:22:24;5.53;;;3.97;;
8199;SDS011;4141;47.880;12.340;2022-10-16T03:24:52;8.03;;;4.27;;
8199;SDS011;4141;47.880;12.340;2022-10-16T03:27:20;5.40;;;2.93;;
8199;SDS011;4141;47.880;12.340;2022-10-16T03:29:49;5.27;;;3.87;;
8199;SDS011;4141;47.880;12.340;2022-10-16T03:32:17;5.43;;;3.73;;
8199;SDS011;4141;47.880;12.340;2022-10-16T03:34:46;6.50;;;3.03;;
8199;SDS011;4141;47.880;12.340;2022-10-16T03:37:16;4.67;;;2.87;;
8199;SDS011;4141;47.880;12.340;2022-10-16T03:39:44;5.27;;;2.83;;
8199;SDS011;4141;47.880;12.340;2022-10-16T03:42:12;4.87;;;2.27;;
8199;SDS011;4141;47.880;12.340;2022-10-16T03:44:40;3.70;;;2.80;;
8199;SDS011;4141;47.880;12.340;2022-10-16T03:47:08;4.87;;;2.80;;
8199;SDS011;4141;47.880;12.340;2022-10-16T03:49:37;5.30;;;3.30;;
8199;SDS011;4141;47.880;12.340;2022-10-16T03:52:05;5.10;;;3.70;;
8199;SDS011;4141;47.880;12.340;2022-10-16T03:54:34;5.10;;;3.63;;
8199;SDS011;4141;47.880;12.340;2022-10-16T03:57:03;5.80;;;3.90;;
8199;SDS011;4141;47.880;12.340;2022-10-16T03:59:31;8.37;;;3.90;;
8199;SDS011;4141;47.880;12.340;2022-10-16T04:01:59;5.23;;;3.30;;
8199;SDS011;4141;47.880;12.340;2022-10-16T04:04:27;4.87;;;3.40;;
8199;SDS011;4141;47.880;12.340;2022-10-16T04:06:56;4.80;;;3.57;;
8199;SDS011;4141;47.880;12.340;2022-10-16T04:09:24;13.07;;;4.23;;
8199;SDS011;4141;47.880;12.340;2022-10-16T04:11:55;5.40;;;3.70;;
8199;SDS011;4141;47.880;12.340;2022-10-16T04:14:23;8.20;;;4.03;;
8199;SDS011;4141;47.880;12.340;2022-10-16T04:16:51;3.83;;;3.03;;
8199;SDS011;4141;47.880;12.340;2022-10-16T04:19:19;11.80;;;3.40;;
8199;SDS011;4141;47.880;12.340;2022-10-16T04:21:47;16.63;;;3.87;;
8199;SDS011;4141;47.880;12.340;2022-10-16T04:24:16;4.70;;;3.30;;
8199;SDS011;4141;47.880;12.340;2022-10-16T04:26:44;11.43;;;3.13;;
8199;SDS011;4141;47.880;12.340;2022-10-16T04:29:14;5.13;;;3.43;;
8199;SDS011;4141;47.880;12.340;2022-10-16T04:31:42;8.70;;;3.83;;
8199;SDS011;4141;47.880;12.340;2022-10-16T04:34:10;5.73;;;4.20;;
8199;SDS011;4141;47.880;12.340;2022-10-16T04:36:38;7.07;;;3.93;;
8199;SDS011;4141;47.880;12.340;2022-10-16T04:39:06;6.93;;;3.63;;
8199;SDS011;4141;47.880;12.340;2022-10-16T04:41:34;7.57;;;4.13;;
8199;SDS011;4141;47.880;12.340;2022-10-16T04:44:03;15.43;;;5.30;;
8199;SDS011;4141;47.880;12.340;2022-10-16T04:46:33;8.07;;;5.17;;
8199;SDS011;4141;47.880;12.340;2022-10-16T04:49:01;14.13;;;5.53;;
8199;SDS011;4141;47.880;12.340;2022-10-16T04:51:29;11.00;;;4.50;;
8199;SDS011;4141;47.880;12.340;2022-10-16T04:53:57;5.47;;;4.30;;
8199;SDS011;4141;47.880;12.340;2022-10-16T04:56:25;7.53;;;4.20;;
8199;SDS011;4141;47.880;12.340;2022-10-16T04:58:54;7.63;;;4.50;;
8199;SDS011;4141;47.880;12.340;2022-10-16T05:01:22;6.70;;;3.70;;
8199;SDS011;4141;47.880;12.340;2022-10-16T05:03:52;6.10;;;3.30;;
8199;SDS011;4141;47.880;12.340;2022-10-16T05:06:20;6.80;;;4.17;;
8199;SDS011;4141;47.880;12.340;2022-10-16T05:08:48;7.77;;;5.00;;
8199;SDS011;4141;47.880;12.340;2022-10-16T05:11:16;10.83;;;5.20;;
8199;SDS011;4141;47.880;12.340;2022-10-16T05:13:44;7.90;;;5.47;;
8199;SDS011;4141;47.880;12.340;2022-10-16T05:16:17;6.93;;;4.23;;
8199;SDS011;4141;47.880;12.340;2022-10-16T05:18:45;9.90;;;5.13;;
8199;SDS011;4141;47.880;12.340;2022-10-16T05:21:20;5.70;;;4.20;;
8199;SDS011;4141;47.880;12.340;2022-10-16T05:23:48;7.63;;;4.40;;
8199;SDS011;4141;47.880;12.340;2022-10-16T05:26:16;7.40;;;4.87;;
8199;SDS011;4141;47.880;12.340;2022-10-16T05:28:45;9.63;;;4.90;;
8199;SDS011;4141;47.880;12.340;2022-10-16T05:31:13;5.97;;;4.27;;
8199;SDS011;4141;47.880;12.340;2022-10-16T05:33:41;7.20;;;4.53;;
8199;SDS011;4141;47.880;12.340;2022-10-16T05:36:10;5.07;;;4.17;;
8199;SDS011;4141;47.880;12.340;2022-10-16T05:38:40;6.07;;;4.07;;
8199;SDS011;4141;47.880;12.340;2022-10-16T05:41:09;4.63;;;3.80;;
8199;SDS011;4141;47.880;12.340;2022-10-16T05:43:37;9.10;;;4.50;;
8199;SDS011;4141;47.880;12.340;2022-10-16T05:46:06;5.53;;;4.17;;
8199;SDS011;4141;47.880;12.340;2022-10-16T05:48:34;12.30;;;3.50;;
8199;SDS011;4141;47.880;12.340;2022-10-16T05:51:02;6.00;;;3.00;;
8199;SDS011;4141;47.880;12.340;2022-10-16T05:53:33;3.93;;;2.90;;
8199;SDS011;4141;47.880;12.340;2022-10-16T05:56:05;3.97;;;3.10;;
8199;SDS011;4141;47.880;12.340;2022-10-16T05:58:34;9.97;;;3.23;;
8199;SDS011;4141;47.880;12.340;2022-10-16T06:01:04;10.53;;;2.50;;
8199;SDS011;4141;47.880;12.340;2022-10-16T06:03:34;9.37;;;3.10;;
8199;SDS011;4141;47.880;12.340;2022-10-16T06:06:07;7.00;;;2.63;;
8199;SDS011;4141;47.880;12.340;2022-10-16T06:08:38;6.30;;;2.23;;
8199;SDS011;4141;47.880;12.340;2022-10-16T06:11:08;2.13;;;1.70;;
8199;SDS011;4141;47.880;12.340;2022-10-16T06:13:37;7.13;;;1.73;;
8199;SDS011;4141;47.880;12.340;2022-10-16T06:16:08;3.10;;;1.80;;
8199;SDS011;4141;47.880;12.340;2022-10-16T06:18:37;2.00;;;1.10;;
8199;SDS011;4141;47.880;12.340;2022-10-16T06:21:09;2.20;;;1.50;;
8199;SDS011;4141;47.880;12.340;2022-10-16T06:23:37;2.90;;;1.23;;
8199;SDS011;4141;47.880;12.340;2022-10-16T06:26:10;2.80;;;1.43;;
8199;SDS011;4141;47.880;12.340;2022-10-16T06:28:40;5.70;;;1.70;;
8199;SDS011;4141;47.880;12.340;2022-10-16T06:31:09;5.77;;;1.70;;
8199;SDS011;4141;47.880;12.340;2022-10-16T06:33:38;1.70;;;1.17;;
8199;SDS011;4141;47.880;12.340;2022-10-16T06:36:07;1.33;;;1.00;;
8199;SDS011;4141;47.880;12.340;2022-10-16T06:38:36;2.80;;;1.60;;
8199;SDS011;4141;47.880;12.340;2022-10-16T06:41:04;2.03;;;1.50;;
8199;SDS011;4141;47.880;12.340;2022-10-16T06:43:34;6.50;;;1.20;;
8199;SDS011;4141;47.880;12.340;2022-10-16T06:46:03;2.10;;;1.43;;
8199;SDS011;4141;47.880;12.340;2022-10-16T06:48:34;17.00;;;1.90;;
8199;SDS011;4141;47.880;12.340;2022-10-16T06:51:03;3.57;;;1.60;;
8199;SDS011;4141;47.880;12.340;2022-10-16T06:53:33;3.60;;;1.70;;
8199;SDS011;4141;47.880;12.340;2022-10-16T06:56:15;1.90;;;1.37;;
8199;SDS011;4141;47.880;12.340;2022-10-16T06:58:45;3.30;;;2.17;;
8199;SDS011;4141;47.880;12.340;2022-10-16T07:01:14;6.30;;;2.60;;
8199;SDS011;4141;47.880;12.340;2022-10-16T07:03:43;4.10;;;2.40;;
8199;SDS011;4141;47.880;12.340;2022-10-16T07:06:12;5.40;;;2.60;;
8199;SDS011;4141;47.880;12.340;2022-10-16T07:08:42;7.60;;;2.53;;
8199;SDS011;4141;47.880;12.340;2022-10-16T07:11:11;4.57;;;2.60;;
8199;SDS011;4141;47.880;12.340;2022-10-16T07:13:41;5.10;;;2.87;;
8199;SDS011;4141;47.880;12.340;2022-10-16T07:16:21;4.67;;;2.53;;
8199;SDS011;4141;47.880;12.340;2022-10-16T07:18:51;5.90;;;3.17;;
8199;SDS011;4141;47.880;12.340;2022-10-16T07:21:24;12.63;;;4.20;;
8199;SDS011;4141;47.880;12.340;2022-10-16T07:23:54;8.07;;;5.77;;
8199;SDS011;4141;47.880;12.340;2022-10-16T07:26:23;4.93;;;2.97;;
8199;SDS011;4141;47.880;12.340;2022-10-16T07:28:52;3.93;;;2.50;;
8199;SDS011;4141;47.880;12.340;2022-10-16T07:31:21;6.10;;;2.70;;
8199;SDS011;4141;47.880;12.340;2022-10-16T07:33:50;3.23;;;2.93;;
8199;SDS011;4141;47.880;12.340;2022-10-16T07:36:19;5.70;;;2.70;;
8199;SDS011;4141;47.880;12.340;2022-10-16T07:38:47;3.40;;;2.97;;
8199;SDS011;4141;47.880;12.340;2022-10-16T07:41:20;4.10;;;2.90;;
8199;SDS011;4141;47.880;12.340;2022-10-16T07:43:49;5.43;;;3.00;;
8199;SDS011;4141;47.880;12.340;2022-10-16T07:46:18;6.67;;;4.27;;
8199;SDS011;4141;47.880;12.340;2022-10-16T07:48:48;4.70;;;3.83;;
8199;SDS011;4141;47.880;12.340;2022-10-16T07:51:17;4.87;;;3.60;;
8199;SDS011;4141;47.880;12.340;2022-10-16T07:53:46;14.07;;;11.03;;
8199;SDS011;4141;47.880;12.340;2022-10-16T07:56:14;6.10;;;4.67;;
8199;SDS011;4141;47.880;12.340;2022-10-16T07:58:45;6.60;;;6.00;;
8199;SDS011;4141;47.880;12.340;2022-10-16T08:01:13;9.00;;;5.67;;
8199;SDS011;4141;47.880;12.340;2022-10-16T08:03:42;5.37;;;3.80;;
8199;SDS011;4141;47.880;12.340;2022-10-16T08:06:12;2.63;;;1.90;;
8199;SDS011;4141;47.880;12.340;2022-10-16T08:08:40;2.30;;;1.67;;
8199;SDS011;4141;47.880;12.340;2022-10-16T08:11:08;3.90;;;2.30;;
8199;SDS011;4141;47.880;12.340;2022-10-16T08:13:37;10.50;;;2.13;;
8199;SDS011;4141;47.880;12.340;2022-10-16T08:16:05;4.47;;;1.80;;
8199;SDS011;4141;47.880;12.340;2022-10-16T08:18:34;5.30;;;2.60;;
8199;SDS011;4141;47.880;12.340;2022-10-16T08:21:03;2.03;;;1.67;;
8199;SDS011;4141;47.880;12.340;2022-10-16T08:23:33;2.83;;;1.80;;
8199;SDS011;4141;47.880;12.340;2022-10-16T08:26:02;5.60;;;2.10;;
8199;SDS011;4141;47.880;12.340;2022-10-16T08:28:32;2.90;;;1.83;;
8199;SDS011;4141;47.880;12.340;2022-10-16T08:31:09;3.10;;;1.80;;
8199;SDS011;4141;47.880;12.340;2022-10-16T08:33:40;4.67;;;2.07;;
8199;SDS011;4141;47.880;12.340;2022-10-16T08:36:11;5.57;;;2.30;;
8199;SDS011;4141;47.880;12.340;2022-10-16T08:38:40;4.67;;;2.47;;
8199;SDS011;4141;47.880;12.340;2022-10-16T08:41:21;2.63;;;1.90;;
8199;SDS011;4141;47.880;12.340;2022-10-16T08:43:58;3.17;;;2.00;;
8199;SDS011;4141;47.880;12.340;2022-10-16T08:46:39;2.90;;;1.93;;
8199;SDS011;4141;47.880;12.340;2022-10-16T08:49:16;2.90;;;1.87;;
8199;SDS011;4141;47.880;12.340;2022-10-16T08:51:44;2.37;;;1.63;;
8199;SDS011;4141;47.880;12.340;2022-10-16T08:54:22;4.10;;;2.20;;
8199;SDS011;4141;47.880;12.340;2022-10-16T08:56:56;2.83;;;1.50;;
8199;SDS011;4141;47.880;12.340;2022-10-16T08:59:24;2.33;;;1.40;;
8199;SDS011;4141;47.880;12.340;2022-10-16T09:01:53;3.50;;;1.80;;
8199;SDS011;4141;47.880;12.340;2022-10-16T09:04:29;2.50;;;1.50;;
8199;SDS011;4141;47.880;12.340;2022-10-16T09:07:11;2.50;;;1.80;;
8199;SDS011;4141;47.880;12.340;2022-10-16T09:09:50;3.10;;;1.00;;
8199;SDS011;4141;47.880;12.340;2022-10-16T09:12:24;2.40;;;1.63;;
8199;SDS011;4141;47.880;12.340;2022-10-16T09:15:05;2.77;;;1.63;;
8199;SDS011;4141;47.880;12.340;2022-10-16T09:17:44;2.03;;;1.40;;
8199;SDS011;4141;47.880;12.340;2022-10-16T09:20:23;1.73;;;1.47;;
8199;SDS011;4141;47.880;12.340;2022-10-16T09:23:00;3.70;;;1.57;;
8199;SDS011;4141;47.880;12.340;2022-10-16T09:25:39;3.83;;;1.77;;
8199;SDS011;4141;47.880;12.340;2022-10-16T09:28:11;6.77;;;1.50;;
8199;SDS011;4141;47.880;12.340;2022-10-16T09:30:39;4.13;;;2.30;;
8199;SDS011;4141;47.880;12.340;2022-10-16T09:33:07;2.47;;;1.90;;
8199;SDS011;4141;47.880;12.340;2022-10-16T09:35:37;7.33;;;1.60;;
8199;SDS011;4141;47.880;12.340;2022-10-16T09:38:07;2.30;;;2.03;;
8199;SDS011;4141;47.880;12.340;2022-10-16T09:40:36;4.43;;;1.73;;
8199;SDS011;4141;47.880;12.340;2022-10-16T09:43:12;5.17;;;1.90;;
8199;SDS011;4141;47.880;12.340;2022-10-16T09:45:57;3.80;;;2.10;;
8199;SDS011;4141;47.880;12.340;2022-10-16T09:48:27;4.70;;;2.10;;
8199;SDS011;4141;47.880;12.340;2022-10-16T09:50:56;2.60;;;1.77;;
8199;SDS011;4141;47.880;12.340;2022-10-16T09:53:26;6.53;;;2.07;;
8199;SDS011;4141;47.880;12.340;2022-10-16T09:56:09;3.43;;;1.80;;
8199;SDS011;4141;47.880;12.340;2022-10-16T09:58:43;7.83;;;1.90;;
8199;SDS011;4141;47.880;12.340;2022-10-16T10:01:18;2.90;;;1.90;;
8199;SDS011;4141;47.880;12.340;2022-10-16T10:03:46;2.20;;;1.67;;
8199;SDS011;4141;47.880;12.340;2022-10-16T10:06:17;8.37;;;2.30;;
8199;SDS011;4141;47.880;12.340;2022-10-16T10:11:52;2.60;;;1.83;;
8199;SDS011;4141;47.880;12.340;2022-10-16T10:14:29;1.83;;;1.57;;
8199;SDS011;4141;47.880;12.340;2022-10-16T10:17:09;3.43;;;1.20;;
8199;SDS011;4141;47.880;12.340;2022-10-16T10:19:42;1.63;;;1.37;;
8199;SDS011;4141;47.880;12.340;2022-10-16T10:22:18;2.43;;;1.50;;
8199;SDS011;4141;47.880;12.340;2022-10-16T10:24:57;4.43;;;1.60;;
8199;SDS011;4141;47.880;12.340;2022-10-16T10:27:45;3.60;;;1.70;;
8199;SDS011;4141;47.880;12.340;2022-10-16T10:30:24;2.30;;;1.87;;
8199;SDS011;4141;47.880;12.340;2022-10-16T10:33:00;5.67;;;1.40;;
8199;SDS011;4141;47.880;12.340;2022-10-16T10:35:40;3.00;;;1.87;;
8199;SDS011;4141;47.880;12.340;2022-10-16T10:38:17;3.57;;;1.43;;
8199;SDS011;4141;47.880;12.340;2022-10-16T10:41:01;4.70;;;2.90;;
8199;SDS011;4141;47.880;12.340;2022-10-16T10:43:44;2.73;;;1.70;;
8199;SDS011;4141;47.880;12.340;2022-10-16T10:46:25;2.23;;;1.70;;
8199;SDS011;4141;47.880;12.340;2022-10-16T10:51:54;1.90;;;1.50;;
8199;SDS011;4141;47.880;12.340;2022-10-16T10:54:32;1.97;;;1.23;;
8199;SDS011;4141;47.880;12.340;2022-10-16T10:57:08;2.60;;;1.70;;
8199;SDS011;4141;47.880;12.340;2022-10-16T10:59:57;1.50;;;1.00;;
8199;SDS011;4141;47.880;12.340;2022-10-16T11:02:33;2.20;;;1.40;;
8199;SDS011;4141;47.880;12.340;2022-10-16T11:08:04;2.27;;;1.53;;
8199;SDS011;4141;47.880;12.340;2022-10-16T11:10:40;2.60;;;1.40;;
8199;SDS011;4141;47.880;12.340;2022-10-16T11:13:16;1.90;;;1.30;;
8199;SDS011;4141;47.880;12.340;2022-10-16T11:15:51;1.60;;;1.40;;
8199;SDS011;4141;47.880;12.340;2022-10-16T11:18:24;2.80;;;1.40;;
8199;SDS011;4141;47.880;12.340;2022-10-16T11:20:56;2.97;;;1.47;;
8199;SDS011;4141;47.880;12.340;2022-10-16T11:23:27;1.87;;;1.50;;
8199;SDS011;4141;47.880;12.340;2022-10-16T11:25:59;1.80;;;1.33;;
8199;SDS011;4141;47.880;12.340;2022-10-16T11:28:31;3.13;;;1.80;;
8199;SDS011;4141;47.880;12.340;2022-10-16T11:31:05;1.97;;;1.27;;
8199;SDS011;4141;47.880;12.340;2022-10-16T11:33:37;1.80;;;1.47;;
8199;SDS011;4141;47.880;12.340;2022-10-16T11:36:11;3.10;;;1.63;;
8199;SDS011;4141;47.880;12.340;2022-10-16T11:38:43;2.17;;;1.30;;
8199;SDS011;4141;47.880;12.340;2022-10-16T11:41:20;2.00;;;1.40;;
8199;SDS011;4141;47.880;12.340;2022-10-16T11:43:55;1.90;;;1.33;;
8199;SDS011;4141;47.880;12.340;2022-10-16T11:46:40;2.53;;;1.50;;
8199;SDS011;4141;47.880;12.340;2022-10-16T11:49:25;2.77;;;1.63;;
8199;SDS011;4141;47.880;12.340;2022-10-16T11:51:56;2.60;;;1.20;;
8199;SDS011;4141;47.880;12.340;2022-10-16T11:54:31;1.90;;;1.30;;
8199;SDS011;4141;47.880;12.340;2022-10-16T11:57:02;3.20;;;1.80;;
8199;SDS011;4141;47.880;12.340;2022-10-16T11:59:38;2.53;;;1.87;;
8199;SDS011;4141;47.880;12.340;2022-10-16T12:02:21;2.00;;;1.80;;
8199;SDS011;4141;47.880;12.340;2022-10-16T12:05:00;2.90;;;1.77;;
8199;SDS011;4141;47.880;12.340;2022-10-16T12:07:35;1.87;;;1.00;;
8199;SDS011;4141;47.880;12.340;2022-10-16T12:10:11;2.03;;;1.33;;
8199;SDS011;4141;47.880;12.340;2022-10-16T12:12:51;1.87;;;1.30;;
8199;SDS011;4141;47.880;12.340;2022-10-16T12:15:21;3.50;;;1.10;;
8199;SDS011;4141;47.880;12.340;2022-10-16T12:18:21;3.20;;;1.40;;
8199;SDS011;4141;47.880;12.340;2022-10-16T12:20:54;2.70;;;1.70;;
8199;SDS011;4141;47.880;12.340;2022-10-16T12:23:27;2.60;;;1.60;;
8199;SDS011;4141;47.880;12.340;2022-10-16T12:25:55;57.30;;;4.23;;
8199;SDS011;4141;47.880;12.340;2022-10-16T12:29:13;13.80;;;2.10;;
8199;SDS011;4141;47.880;12.340;2022-10-16T12:31:46;6.73;;;1.87;;
8199;SDS011;4141;47.880;12.340;2022-10-16T12:34:25;17.87;;;1.67;;
8199;SDS011;4141;47.880;12.340;2022-10-16T12:36:55;6.97;;;1.70;;
8199;SDS011;4141;47.880;12.340;2022-10-16T12:39:25;5.40;;;1.50;;
8199;SDS011;4141;47.880;12.340;2022-10-16T12:42:02;4.53;;;1.03;;
8199;SDS011;4141;47.880;12.340;2022-10-16T12:44:34;3.50;;;1.10;;
8199;SDS011;4141;47.880;12.340;2022-10-16T12:47:03;1.60;;;0.90;;
8199;SDS011;4141;47.880;12.340;2022-10-16T12:49:36;2.17;;;0.87;;
8199;SDS011;4141;47.880;12.340;2022-10-16T12:54:56;1.90;;;1.20;;
8199;SDS011;4141;47.880;12.340;2022-10-16T12:57:29;1.60;;;0.87;;
8199;SDS011;4141;47.880;12.340;2022-10-16T13:00:07;3.50;;;1.60;;
8199;SDS011;4141;47.880;12.340;2022-10-16T13:02:48;6.80;;;1.20;;
8199;SDS011;4141;47.880;12.340;2022-10-16T13:05:26;5.63;;;1.10;;
8199;SDS011;4141;47.880;12.340;2022-10-16T13:08:13;1.60;;;0.93;;
8199;SDS011;4141;47.880;12.340;2022-10-16T13:10:57;1.60;;;1.00;;
8199;SDS011;4141;47.880;12.340;2022-10-16T13:13:38;2.93;;;1.10;;
8199;SDS011;4141;47.880;12.340;2022-10-16T13:16:19;1.50;;;1.00;;
8199;SDS011;4141;47.880;12.340;2022-10-16T13:18:54;5.93;;;1.03;;
8199;SDS011;4141;47.880;12.340;2022-10-16T13:21:31;1.90;;;1.10;;
8199;SDS011;4141;47.880;12.340;2022-10-16T13:24:07;2.47;;;1.20;;
8199;SDS011;4141;47.880;12.340;2022-10-16T13:26:41;1.80;;;1.17;;
8199;SDS011;4141;47.880;12.340;2022-10-16T13:29:12;1.50;;;0.80;;
8199;SDS011;4141;47.880;12.340;2022-10-16T13:31:43;3.63;;;0.90;;
8199;SDS011;4141;47.880;12.340;2022-10-16T13:34:13;1.40;;;0.90;;
8199;SDS011;4141;47.880;12.340;2022-10-16T13:36:43;2.17;;;1.07;;
8199;SDS011;4141;47.880;12.340;2022-10-16T13:39:13;1.50;;;1.00;;
8199;SDS011;4141;47.880;12.340;2022-10-16T13:41:43;1.40;;;0.83;;
8199;SDS011;4141;47.880;12.340;2022-10-16T13:44:13;1.23;;;0.80;;
8199;SDS011;4141;47.880;12.340;2022-10-16T13:46:44;3.03;;;1.00;;
8199;SDS011;4141;47.880;12.340;2022-10-16T13:49:13;2.07;;;0.90;;
8199;SDS011;4141;47.880;12.340;2022-10-16T13:51:53;2.03;;;1.03;;
8199;SDS011;4141;47.880;12.340;2022-10-16T13:54:22;1.37;;;0.93;;
8199;SDS011;4141;47.880;12.340;2022-10-16T13:56:50;3.27;;;1.00;;
8199;SDS011;4141;47.880;12.340;2022-10-16T13:59:35;1.70;;;1.10;;
8199;SDS011;4141;47.880;12.340;2022-10-16T14:02:08;1.43;;;0.80;;
8199;SDS011;4141;47.880;12.340;2022-10-16T14:04:43;7.20;;;0.77;;
8199;SDS011;4141;47.880;12.340;2022-10-16T14:07:13;7.43;;;1.80;;
8199;SDS011;4141;47.880;12.340;2022-10-16T14:09:47;1.33;;;0.77;;
8199;SDS011;4141;47.880;12.340;2022-10-16T14:12:16;1.43;;;0.70;;
8199;SDS011;4141;47.880;12.340;2022-10-16T14:14:48;1.53;;;1.00;;
8199;SDS011;4141;47.880;12.340;2022-10-16T14:17:20;2.40;;;0.90;;
8199;SDS011;4141;47.880;12.340;2022-10-16T14:19:51;1.20;;;0.93;;
8199;SDS011;4141;47.880;12.340;2022-10-16T14:22:29;3.27;;;1.07;;
8199;SDS011;4141;47.880;12.340;2022-10-16T14:24:59;6.50;;;2.40;;
8199;SDS011;4141;47.880;12.340;2022-10-16T14:27:30;2.80;;;1.50;;
8199;SDS011;4141;47.880;12.340;2022-10-16T14:30:12;5.20;;;1.90;;
8199;SDS011;4141;47.880;12.340;2022-10-16T14:32:53;2.95;;;0.65;;
8199;SDS011;4141;47.880;12.340;2022-10-16T14:35:27;2.63;;;0.50;;
8199;SDS011;4141;47.880;12.340;2022-10-16T14:37:57;3.77;;;0.60;;
8199;SDS011;4141;47.880;12.340;2022-10-16T14:40:26;3.30;;;1.43;;
8199;SDS011;4141;47.880;12.340;2022-10-16T14:42:56;3.67;;;1.27;;
8199;SDS011;4141;47.880;12.340;2022-10-16T14:45:26;9.60;;;1.70;;
8199;SDS011;4141;47.880;12.340;2022-10-16T14:47:58;1.23;;;0.60;;
8199;SDS011;4141;47.880;12.340;2022-10-16T14:50:26;2.10;;;0.70;;
8199;SDS011;4141;47.880;12.340;2022-10-16T14:52:55;3.43;;;0.77;;
8199;SDS011;4141;47.880;12.340;2022-10-16T14:55:23;1.43;;;0.60;;
8199;SDS011;4141;47.880;12.340;2022-10-16T14:57:52;6.57;;;0.83;;
8199;SDS011;4141;47.880;12.340;2022-10-16T15:00:26;8.53;;;0.70;;
8199;SDS011;4141;47.880;12.340;2022-10-16T15:02:54;1.20;;;0.67;;
8199;SDS011;4141;47.880;12.340;2022-10-16T15:05:24;4.63;;;0.70;;
8199;SDS011;4141;47.880;12.340;2022-10-16T15:07:55;2.90;;;0.60;;
8199;SDS011;4141;47.880;12.340;2022-10-16T15:10:24;2.20;;;0.93;;
8199;SDS011;4141;47.880;12.340;2022-10-16T15:12:54;3.17;;;0.80;;
8199;SDS011;4141;47.880;12.340;2022-10-16T15:15:28;4.13;;;0.80;;
8199;SDS011;4141;47.880;12.340;2022-10-16T15:18:01;2.37;;;0.70;;
8199;SDS011;4141;47.880;12.340;2022-10-16T15:20:32;1.73;;;0.57;;
8199;SDS011;4141;47.880;12.340;2022-10-16T15:23:02;3.73;;;0.90;;
8199;SDS011;4141;47.880;12.340;2022-10-16T15:25:34;2.73;;;0.80;;
8199;SDS011;4141;47.880;12.340;2022-10-16T15:28:06;2.10;;;1.53;;
8199;SDS011;4141;47.880;12.340;2022-10-16T15:30:34;13.83;;;2.67;;
8199;SDS011;4141;47.880;12.340;2022-10-16T15:33:12;7.80;;;4.90;;
8199;SDS011;4141;47.880;12.340;2022-10-16T15:35:44;7.10;;;3.77;;
8199;SDS011;4141;47.880;12.340;2022-10-16T15:38:14;3.37;;;2.13;;
8199;SDS011;4141;47.880;12.340;2022-10-16T15:40:43;13.03;;;9.50;;
8199;SDS011;4141;47.880;12.340;2022-10-16T15:43:11;50.03;;;43.43;;